Time;durP1;ratioP1;P1;durP2;ratioP2;P2;SDS_P1;SDS_P2;PMS_P1;PMS_P2;Temp;Humidity;BMP_temperature;BMP_pressure;BME280_temperature;BME280_humidity;BME280_pressure;Samples;Min_cycle;Max_cycle;Signal;HPM_P1;HPM_P2
2021/12/01 00:00:13;;;;;;;4.65;4.15;;;6.50;99.90;;;;;;5096279;28;20026;-90
2021/12/01 00:02:39;;;;;;;4.43;4.03;;;6.50;99.90;;;;;;4403258;27;10000990;-90
2021/12/01 00:05:06;;;;;;;4.80;4.40;;;6.50;99.90;;;;;;5104513;28;20092;-91
2021/12/01 00:07:35;;;;;;;4.82;4.43;;;6.50;99.90;;;;;;5111471;28;20040;-91
2021/12/01 00:10:03;;;;;;;4.60;4.20;;;6.50;99.90;;;;;;5101339;28;20142;-90
2021/12/01 00:12:28;;;;;;;4.88;4.22;;;6.50;99.90;;;;;;5106677;28;20038;-91
2021/12/01 00:14:54;;;;;;;4.88;4.47;;;6.50;99.90;;;;;;5104233;28;20393;-90
2021/12/01 00:17:19;;;;;;;5.35;4.95;;;6.50;99.90;;;;;;5104688;28;20249;-89
2021/12/01 00:19:45;;;;;;;6.10;4.78;;;6.50;99.90;;;;;;5098472;28;20024;-88
2021/12/01 00:22:10;;;;;;;6.22;5.10;;;6.50;99.90;;;;;;5096064;28;20032;-89
2021/12/01 00:24:36;;;;;;;6.85;5.20;;;6.40;99.90;;;;;;5105171;28;20042;-88
2021/12/01 00:27:02;;;;;;;5.78;5.28;;;6.50;99.90;;;;;;5107007;28;20626;-87
2021/12/01 00:29:27;;;;;;;5.93;5.32;;;6.50;99.90;;;;;;5104835;28;20035;-87
2021/12/01 00:31:53;;;;;;;6.70;5.18;;;6.50;99.90;;;;;;5097003;28;20229;-86
2021/12/01 00:34:19;;;;;;;5.93;5.35;;;6.50;99.90;;;;;;5081141;28;20038;-86
2021/12/01 00:36:44;;;;;;;6.45;5.82;;;6.50;99.90;;;;;;5095130;28;20020;-89
2021/12/01 00:39:10;;;;;;;6.30;5.70;;;6.40;99.90;;;;;;5089274;28;20031;-89
2021/12/01 00:41:35;;;;;;;8.52;5.85;;;6.40;99.90;;;;;;5081077;28;20028;-89
2021/12/01 00:44:01;;;;;;;6.03;5.43;;;6.40;99.90;;;;;;5088830;28;20422;-88
2021/12/01 00:46:53;;;;;;;5.93;5.38;;;6.40;99.90;;;;;;5093282;28;20020;-87
2021/12/01 00:49:18;;;;;;;5.80;5.13;;;6.40;99.90;;;;;;5092399;28;20032;-88
2021/12/01 00:51:44;;;;;;;6.90;5.57;;;6.40;99.90;;;;;;5087710;28;20525;-89
2021/12/01 00:54:10;;;;;;;6.28;5.68;;;6.40;99.90;;;;;;5070959;28;20040;-90
2021/12/01 00:56:35;;;;;;;6.07;5.30;;;6.40;99.90;;;;;;5080760;28;20086;-90
2021/12/01 00:59:01;;;;;;;5.40;4.90;;;6.40;99.90;;;;;;5086151;28;20121;-86
2021/12/01 01:01:27;;;;;;;5.88;4.45;;;6.40;99.90;;;;;;5082419;28;20059;-88
2021/12/01 01:03:52;;;;;;;5.38;4.88;;;6.40;99.90;;;;;;5079825;28;20044;-89
2021/12/01 01:06:18;;;;;;;5.72;5.20;;;6.40;99.90;;;;;;5079336;28;20069;-87
2021/12/01 01:08:46;;;;;;;5.57;5.03;;;6.40;99.90;;;;;;5090211;28;20036;-85
2021/12/01 01:16:43;;;;;;;5.32;4.82;;;6.40;99.90;;;;;;5075770;28;20035;-86
2021/12/01 01:19:10;;;;;;;6.32;5.18;;;6.40;99.90;;;;;;5082092;28;20015;-86
2021/12/01 01:21:46;;;;;;;5.88;5.28;;;6.40;99.90;;;;;;5096229;28;20473;-87
2021/12/01 01:24:12;;;;;;;5.90;5.28;;;6.40;99.90;;;;;;5098069;28;20032;-88
2021/12/01 01:26:38;;;;;;;6.07;5.47;;;6.40;99.90;;;;;;5075682;28;20023;-89
2021/12/01 01:29:05;;;;;;;7.28;5.63;;;6.40;99.90;;;;;;5079246;28;20113;-90
2021/12/01 01:31:31;;;;;;;5.97;5.32;;;6.40;99.90;;;;;;5100146;28;20036;-91
2021/12/01 01:33:59;;;;;;;6.03;5.43;;;6.40;99.90;;;;;;5113024;28;20020;-90
2021/12/01 01:36:27;;;;;;;9.40;5.63;;;6.40;99.90;;;;;;5098286;28;20036;-89
2021/12/01 01:38:52;;;;;;;6.55;5.82;;;6.40;99.90;;;;;;5098670;28;20046;-85
2021/12/01 01:41:19;;;;;;;5.53;5.03;;;6.40;99.90;;;;;;5105646;28;20496;-86
2021/12/01 01:43:46;;;;;;;7.22;5.28;;;6.40;99.90;;;;;;5105028;28;20036;-85
2021/12/01 01:46:13;;;;;;;6.95;5.47;;;6.40;99.90;;;;;;5098225;28;20031;-83
2021/12/01 01:51:17;;;;;;;5.55;5.05;;;6.40;99.90;;;;;;5097707;28;20114;-84
2021/12/01 01:53:43;;;;;;;4.43;3.97;;;6.40;99.90;;;;;;5100645;28;20371;-86
2021/12/01 01:56:10;;;;;;;4.63;4.22;;;6.40;99.90;;;;;;5092643;28;20028;-87
2021/12/01 01:58:35;;;;;;;4.30;3.88;;;6.40;99.90;;;;;;5101422;28;20050;-86
2021/12/01 02:01:09;;;;;;;4.97;4.30;;;6.40;99.90;;;;;;5098651;28;20016;-86
2021/12/01 02:03:44;;;;;;;4.93;4.43;;;6.40;99.90;;;;;;5097992;28;20020;-86
2021/12/01 02:06:11;;;;;;;3.53;3.22;;;6.40;99.90;;;;;;5100952;28;20252;-85
2021/12/01 02:08:40;;;;;;;3.53;3.03;;;6.40;99.90;;;;;;5105343;28;20038;-85
2021/12/01 02:11:10;;;;;;;3.80;2.90;;;6.40;99.90;;;;;;5100931;27;20147;-87
2021/12/01 02:13:37;;;;;;;2.78;2.58;;;6.40;99.90;;;;;;5094076;28;20023;-86
2021/12/01 02:16:04;;;;;;;2.92;2.63;;;6.40;99.90;;;;;;5091707;28;20092;-86
2021/12/01 02:18:29;;;;;;;4.68;2.75;;;6.40;99.90;;;;;;5091661;28;20355;-86
2021/12/01 02:21:28;;;;;;;2.50;2.30;;;6.40;99.90;;;;;;5094858;28;20034;-86
2021/12/01 02:24:06;;;;;;;2.55;2.35;;;6.40;99.90;;;;;;5064274;28;20070;-87
2021/12/01 02:26:35;;;;;;;3.50;2.40;;;6.40;99.90;;;;;;5107054;28;20039;-87
2021/12/01 02:29:04;;;;;;;3.10;2.83;;;6.40;99.90;;;;;;5102600;28;20108;-87
2021/12/01 02:31:34;;;;;;;2.40;2.20;;;6.40;99.90;;;;;;5102433;28;20178;-87
2021/12/01 02:34:02;;;;;;;2.58;2.38;;;6.40;99.90;;;;;;5099348;28;20042;-88
2021/12/01 02:36:28;;;;;;;3.05;2.10;;;6.50;99.90;;;;;;5092578;28;20044;-89
2021/12/01 02:38:54;;;;;;;3.53;2.70;;;6.50;99.90;;;;;;5105318;28;20032;-89
2021/12/01 02:41:31;;;;;;;3.25;2.70;;;6.40;99.90;;;;;;5099796;28;20035;-88
2021/12/01 02:43:59;;;;;;;4.03;2.50;;;6.50;99.90;;;;;;5104133;28;20098;-90
2021/12/01 02:46:25;;;;;;;3.47;2.75;;;6.40;99.90;;;;;;5094305;28;20504;-89
2021/12/01 02:48:51;;;;;;;3.78;3.35;;;6.40;99.90;;;;;;5094524;28;20032;-90
2021/12/01 02:51:19;;;;;;;4.82;3.60;;;6.40;99.90;;;;;;5097285;28;20043;-91
2021/12/01 02:53:45;;;;;;;3.60;3.30;;;6.40;99.90;;;;;;5095985;28;20482;-91
2021/12/01 02:56:10;;;;;;;4.43;3.70;;;6.40;99.90;;;;;;5102008;28;20024;-91
2021/12/01 02:58:40;;;;;;;6.32;3.70;;;6.40;99.90;;;;;;5098108;28;20050;-90
2021/12/01 03:01:13;;;;;;;3.70;3.40;;;6.40;99.90;;;;;;5097096;28;20028;-90
2021/12/01 03:03:40;;;;;;;3.65;3.35;;;6.40;99.90;;;;;;5105383;28;20073;-90
2021/12/01 03:06:06;;;;;;;4.75;4.10;;;6.40;99.90;;;;;;5102355;28;20489;-91
2021/12/01 03:08:34;;;;;;;4.60;4.00;;;6.40;99.90;;;;;;5110469;28;20030;-91
2021/12/01 03:11:00;;;;;;;4.70;4.20;;;6.40;99.90;;;;;;5101775;28;20048;-90
2021/12/01 03:13:26;;;;;;;4.85;4.35;;;6.40;99.90;;;;;;5104015;28;20055;-91
2021/12/01 03:15:52;;;;;;;4.70;4.28;;;6.40;99.90;;;;;;5093605;28;20050;-90
2021/12/01 03:18:18;;;;;;;4.88;3.88;;;6.40;99.90;;;;;;5104117;28;20031;-90
2021/12/01 03:20:46;;;;;;;4.50;4.10;;;6.40;99.90;;;;;;5106675;28;20032;-89
2021/12/01 03:23:12;;;;;;;4.10;3.70;;;6.40;99.90;;;;;;5097969;28;20107;-88
2021/12/01 03:25:38;;;;;;;4.70;3.90;;;6.40;99.90;;;;;;5092369;28;20059;-90
2021/12/01 03:28:06;;;;;;;4.50;3.70;;;6.40;99.90;;;;;;5090941;28;20067;-90
2021/12/01 03:30:34;;;;;;;4.55;3.47;;;6.40;99.90;;;;;;5103782;28;20031;-89
2021/12/01 03:33:00;;;;;;;4.13;3.33;;;6.40;99.90;;;;;;5082543;28;20116;-89
2021/12/01 03:35:27;;;;;;;4.07;3.60;;;6.40;99.90;;;;;;5071619;28;20068;-89
2021/12/01 03:37:52;;;;;;;4.65;4.05;;;6.40;99.90;;;;;;5089976;28;20047;-88
2021/12/01 03:40:18;;;;;;;4.63;3.67;;;6.40;99.90;;;;;;5089045;28;20115;-89
2021/12/01 03:42:44;;;;;;;5.43;3.15;;;6.40;99.90;;;;;;5080443;28;20062;-86
2021/12/01 03:45:11;;;;;;;4.70;3.80;;;6.40;99.90;;;;;;5069793;28;20033;-88
2021/12/01 03:47:37;;;;;;;5.25;3.95;;;6.40;99.90;;;;;;5089165;28;20044;-86
2021/12/01 03:50:03;;;;;;;6.03;4.10;;;6.40;99.90;;;;;;5085068;28;20107;-86
2021/12/01 03:52:29;;;;;;;6.57;4.28;;;6.40;99.90;;;;;;5075451;28;20044;-85
2021/12/01 03:54:55;;;;;;;6.15;5.05;;;6.40;99.90;;;;;;5092459;28;20029;-84
2021/12/01 03:57:21;;;;;;;5.32;4.75;;;6.40;99.90;;;;;;5079346;28;20103;-87
2021/12/01 03:59:47;;;;;;;5.68;5.05;;;6.40;99.90;;;;;;5100746;28;20024;-86
2021/12/01 04:02:13;;;;;;;8.30;5.78;;;6.40;99.90;;;;;;5079091;28;20181;-84
2021/12/01 04:04:40;;;;;;;5.43;4.93;;;6.50;99.90;;;;;;5081479;28;20111;-86
2021/12/01 04:07:05;;;;;;;6.07;4.72;;;6.50;99.90;;;;;;5084681;28;20031;-83
2021/12/01 04:09:32;;;;;;;4.90;4.50;;;6.40;99.90;;;;;;5092743;28;20039;-84
2021/12/01 04:11:58;;;;;;;5.97;4.55;;;6.40;99.90;;;;;;5098126;28;20135;-83
2021/12/01 04:14:24;;;;;;;5.60;5.00;;;6.40;99.90;;;;;;5084567;28;20040;-81
2021/12/01 04:16:50;;;;;;;6.40;3.92;;;6.40;99.90;;;;;;5082109;28;20028;-84
2021/12/01 04:19:16;;;;;;;4.22;3.83;;;6.50;99.90;;;;;;5073544;28;20032;-81
2021/12/01 04:21:42;;;;;;;4.13;3.72;;;6.50;99.90;;;;;;5078448;28;20039;-83
2021/12/01 04:24:08;;;;;;;4.68;4.10;;;6.50;99.90;;;;;;5079569;28;20107;-84
2021/12/01 04:26:35;;;;;;;4.20;3.80;;;6.40;99.90;;;;;;5084735;28;20064;-84
2021/12/01 04:29:03;;;;;;;3.60;3.30;;;6.40;99.90;;;;;;5089769;28;20556;-82
2021/12/01 04:31:30;;;;;;;4.35;3.78;;;6.40;99.90;;;;;;5086923;28;20056;-84
2021/12/01 04:33:57;;;;;;;2.90;2.70;;;6.50;99.90;;;;;;5090318;28;20055;-85
2021/12/01 04:36:27;;;;;;;3.60;3.30;;;6.50;99.90;;;;;;5079036;28;20080;-85
2021/12/01 04:38:53;;;;;;;4.22;3.78;;;6.40;99.90;;;;;;5087347;28;20031;-85
2021/12/01 04:41:21;;;;;;;5.15;4.65;;;6.50;99.90;;;;;;5077579;28;20025;-85
2021/12/01 04:43:47;;;;;;;5.78;5.18;;;6.40;99.90;;;;;;5075740;28;20028;-86
2021/12/01 04:46:16;;;;;;;6.22;5.40;;;6.40;99.90;;;;;;5091148;28;20034;-84
2021/12/01 04:48:42;;;;;;;5.57;5.07;;;6.40;99.90;;;;;;5083933;28;20031;-83
2021/12/01 04:51:07;;;;;;;5.50;4.97;;;6.30;99.90;;;;;;5088155;28;20040;-85
2021/12/01 04:53:33;;;;;;;5.55;4.90;;;6.30;99.90;;;;;;5087117;28;20028;-85
2021/12/01 04:55:59;;;;;;;5.47;4.90;;;6.30;99.90;;;;;;5084228;28;20262;-85
2021/12/01 04:58:25;;;;;;;5.80;4.30;;;6.30;99.90;;;;;;5086468;28;20021;-85
2021/12/01 05:00:51;;;;;;;5.25;3.97;;;6.20;99.90;;;;;;5088119;28;20036;-85
2021/12/01 05:03:17;;;;;;;5.57;4.20;;;6.20;99.90;;;;;;5080221;28;20204;-85
2021/12/01 05:05:42;;;;;;;4.53;4.13;;;6.20;99.90;;;;;;5069498;28;20163;-86
2021/12/01 05:08:08;;;;;;;5.28;4.22;;;6.10;99.90;;;;;;5082541;28;20036;-87
2021/12/01 05:10:34;;;;;;;4.25;3.85;;;6.10;99.90;;;;;;5091448;28;20036;-86
2021/12/01 05:12:59;;;;;;;4.50;4.10;;;6.10;99.90;;;;;;5079189;28;20827;-86
2021/12/01 05:15:25;;;;;;;4.47;4.07;;;6.00;99.90;;;;;;5073804;28;20033;-86
2021/12/01 05:17:50;;;;;;;4.38;3.97;;;6.00;99.90;;;;;;5078177;28;20028;-87
2021/12/01 05:20:16;;;;;;;5.07;4.18;;;6.00;99.90;;;;;;5068330;28;20025;-86
2021/12/01 05:22:44;;;;;;;6.50;4.70;;;6.00;99.90;;;;;;5082654;28;20114;-87
2021/12/01 05:25:10;;;;;;;6.35;4.90;;;6.00;99.90;;;;;;5082035;28;20031;-86
2021/12/01 05:27:36;;;;;;;5.93;4.68;;;5.90;99.90;;;;;;5078523;28;20028;-85
2021/12/01 05:30:03;;;;;;;5.53;5.03;;;5.90;99.90;;;;;;5076484;28;20024;-86
2021/12/01 05:32:30;;;;;;;10.15;5.05;;;5.90;99.90;;;;;;5077109;28;20055;-85
2021/12/01 05:34:56;;;;;;;5.20;4.70;;;5.90;99.90;;;;;;5087740;28;20036;-85
2021/12/01 05:37:22;;;;;;;5.70;5.10;;;5.90;99.90;;;;;;5088662;28;20508;-85
2021/12/01 05:39:48;;;;;;;6.25;4.90;;;5.90;99.90;;;;;;5093323;28;20077;-84
2021/12/01 05:42:16;;;;;;;5.65;5.00;;;5.90;99.90;;;;;;5082929;28;20369;-84
2021/12/01 05:44:42;;;;;;;5.38;4.82;;;5.90;99.90;;;;;;5098744;28;20045;-84
2021/12/01 05:47:09;;;;;;;8.38;4.80;;;5.80;99.90;;;;;;5084291;28;20959;-84
2021/12/01 05:49:41;;;;;;;4.95;4.45;;;5.80;99.90;;;;;;5089632;28;20032;-84
2021/12/01 05:52:16;;;;;;;4.32;3.15;;;5.80;99.90;;;;;;5080408;28;20582;-84
2021/12/01 05:54:43;;;;;;;5.10;4.60;;;5.80;99.90;;;;;;5078057;28;20035;-84
2021/12/01 05:57:09;;;;;;;4.60;4.18;;;5.80;99.90;;;;;;5087694;28;20026;-84
2021/12/01 05:59:35;;;;;;;4.90;4.30;;;5.80;99.90;;;;;;5080454;28;20025;-85
2021/12/01 06:02:01;;;;;;;4.80;4.10;;;5.70;99.90;;;;;;5072570;28;20028;-84
2021/12/01 06:04:27;;;;;;;5.18;4.32;;;5.70;99.90;;;;;;5075107;28;20039;-83
2021/12/01 06:06:53;;;;;;;4.35;3.95;;;5.70;99.90;;;;;;5081220;28;20138;-83
2021/12/01 06:09:19;;;;;;;4.38;3.97;;;5.70;99.90;;;;;;5072382;28;20044;-82
2021/12/01 06:11:47;;;;;;;4.78;4.00;;;5.70;99.90;;;;;;5073084;28;20035;-83
2021/12/01 06:14:14;;;;;;;4.47;4.07;;;5.60;99.90;;;;;;5074680;28;20470;-85
2021/12/01 06:16:42;;;;;;;5.30;4.53;;;5.60;99.90;;;;;;5075685;28;20067;-83
2021/12/01 06:19:07;;;;;;;6.53;4.32;;;5.60;99.90;;;;;;5076697;28;20039;-81
2021/12/01 06:21:33;;;;;;;5.90;4.40;;;5.50;99.90;;;;;;5095511;28;20024;-82
2021/12/01 06:23:59;;;;;;;11.32;6.32;;;5.50;99.90;;;;;;5072608;28;20032;-82
2021/12/01 06:26:24;;;;;;;6.00;5.10;;;5.60;99.90;;;;;;5072162;28;20020;-81
2021/12/01 06:28:51;;;;;;;5.68;4.80;;;5.50;99.90;;;;;;5072113;28;20024;-82
2021/12/01 06:31:17;;;;;;;5.47;4.80;;;5.50;99.90;;;;;;5071107;28;20755;-82
2021/12/01 06:33:43;;;;;;;8.38;5.40;;;5.50;99.90;;;;;;5101371;28;20027;-81
2021/12/01 06:36:08;;;;;;;6.20;4.82;;;5.50;99.90;;;;;;5099491;28;20032;-82
2021/12/01 06:38:34;;;;;;;8.63;5.25;;;5.50;99.90;;;;;;5100908;28;20427;-83
2021/12/01 06:41:01;;;;;;;6.10;5.20;;;5.40;99.90;;;;;;5101091;28;20028;-84
2021/12/01 06:43:27;;;;;;;6.93;5.35;;;5.40;99.90;;;;;;5092428;28;20024;-83
2021/12/01 06:45:52;;;;;;;6.25;5.15;;;5.40;99.90;;;;;;5102139;28;20133;-81
2021/12/01 06:48:18;;;;;;;5.55;4.90;;;5.40;99.90;;;;;;5103720;28;20115;-79
2021/12/01 06:50:45;;;;;;;8.13;5.22;;;5.40;99.90;;;;;;5102537;28;20370;-82
2021/12/01 06:53:10;;;;;;;6.50;5.15;;;5.40;99.90;;;;;;5096164;28;20039;-81
2021/12/01 06:55:36;;;;;;;6.75;5.47;;;5.40;99.90;;;;;;5106270;28;20478;-82
2021/12/01 06:58:02;;;;;;;6.32;5.60;;;5.50;99.90;;;;;;5099854;28;20108;-80
2021/12/01 07:00:28;;;;;;;7.72;5.63;;;5.40;99.90;;;;;;5093762;28;20091;-82
2021/12/01 07:02:53;;;;;;;7.47;4.90;;;5.40;99.90;;;;;;5102994;28;20054;-83
2021/12/01 07:05:19;;;;;;;6.13;5.32;;;5.50;99.90;;;;;;5100729;28;20046;-82
2021/12/01 07:07:44;;;;;;;5.97;5.38;;;5.50;99.90;;;;;;5106605;28;20055;-82
2021/12/01 07:10:12;;;;;;;6.57;4.57;;;5.50;99.90;;;;;;5101467;28;20393;-84
2021/12/01 07:12:39;;;;;;;6.50;5.15;;;5.50;99.90;;;;;;5103714;28;20038;-83
2021/12/01 07:15:06;;;;;;;6.72;5.18;;;5.60;99.90;;;;;;5097504;28;20046;-82
2021/12/01 07:17:31;;;;;;;5.13;4.63;;;5.60;99.90;;;;;;5103066;28;20110;-83
2021/12/01 07:19:57;;;;;;;5.53;4.78;;;5.60;99.90;;;;;;5102011;28;20493;-83
2021/12/01 07:22:23;;;;;;;5.78;5.05;;;5.60;99.90;;;;;;5098961;28;20556;-83
2021/12/01 07:24:48;;;;;;;5.70;4.65;;;5.60;99.90;;;;;;5102637;28;20034;-83
2021/12/01 07:27:16;;;;;;;6.07;5.25;;;5.60;99.90;;;;;;5095204;28;20028;-83
2021/12/01 07:29:42;;;;;;;8.15;5.63;;;5.60;99.90;;;;;;5106651;28;20032;-84
2021/12/01 07:32:09;;;;;;;6.25;5.53;;;5.60;99.90;;;;;;5098653;28;20226;-84
2021/12/01 07:34:41;;;;;;;7.35;5.53;;;5.60;99.90;;;;;;5103800;28;20110;-83
2021/12/01 07:37:11;;;;;;;9.68;5.72;;;5.50;99.90;;;;;;5101531;28;20109;-87
2021/12/01 07:39:38;;;;;;;7.85;6.00;;;5.50;99.90;;;;;;5102271;28;20051;-87
2021/12/01 07:42:04;;;;;;;5.93;5.10;;;5.60;99.90;;;;;;5100541;28;20031;-87
2021/12/01 07:44:31;;;;;;;5.60;5.00;;;5.60;99.90;;;;;;5103518;28;20034;-85
2021/12/01 07:46:56;;;;;;;5.40;4.75;;;5.60;99.90;;;;;;5099987;28;20030;-83
2021/12/01 07:49:22;;;;;;;9.23;7.40;;;5.60;99.90;;;;;;5105256;28;20389;-84
2021/12/01 07:51:48;;;;;;;8.27;7.10;;;5.60;99.90;;;;;;5108306;28;20016;-84
2021/12/01 07:54:14;;;;;;;5.72;4.82;;;5.60;99.90;;;;;;5107763;28;20047;-86
2021/12/01 07:56:40;;;;;;;7.07;5.22;;;5.60;99.90;;;;;;5102333;28;20081;-84
2021/12/01 07:59:05;;;;;;;5.57;5.05;;;5.60;99.90;;;;;;5102483;28;20046;-84
2021/12/01 08:01:31;;;;;;;5.93;4.97;;;5.60;99.90;;;;;;5106284;28;20576;-83
2021/12/01 08:03:57;;;;;;;9.43;5.05;;;5.60;99.90;;;;;;5099169;28;20047;-84
2021/12/01 08:06:23;;;;;;;5.20;4.70;;;5.70;99.90;;;;;;5100859;28;20103;-84
2021/12/01 08:08:48;;;;;;;6.25;4.70;;;5.70;99.90;;;;;;5108590;28;20031;-83
2021/12/01 08:11:14;;;;;;;6.38;4.40;;;5.70;99.90;;;;;;5106778;28;20028;-84
2021/12/01 08:13:40;;;;;;;5.95;4.60;;;5.70;99.90;;;;;;5093532;28;20032;-83
2021/12/01 08:16:06;;;;;;;7.95;5.35;;;5.70;99.90;;;;;;5102041;28;20035;-83
2021/12/01 08:18:32;;;;;;;6.50;4.80;;;5.70;99.90;;;;;;5102745;28;20027;-83
2021/12/01 08:20:58;;;;;;;5.80;5.05;;;5.70;99.90;;;;;;5103378;28;20125;-80
2021/12/01 08:23:24;;;;;;;7.93;5.10;;;5.70;99.90;;;;;;5104681;28;20110;-83
2021/12/01 08:25:50;;;;;;;5.68;4.78;;;5.70;99.90;;;;;;5101263;28;20275;-82
2021/12/01 08:28:16;;;;;;;7.10;5.18;;;5.70;99.90;;;;;;5104244;28;20564;-82
2021/12/01 08:30:42;;;;;;;6.13;5.20;;;5.70;99.90;;;;;;5107435;28;20028;-81
2021/12/01 08:33:08;;;;;;;8.40;5.13;;;5.70;99.90;;;;;;5102799;28;20505;-84
2021/12/01 08:35:34;;;;;;;7.80;5.15;;;5.60;99.90;;;;;;5102671;28;20030;-83
2021/12/01 08:37:59;;;;;;;7.72;5.32;;;5.60;99.90;;;;;;5104269;28;20068;-84
2021/12/01 08:40:25;;;;;;;6.43;5.05;;;5.60;99.90;;;;;;5102926;28;20028;-83
2021/12/01 08:42:51;;;;;;;10.27;5.13;;;5.60;99.90;;;;;;5104437;28;20028;-84
2021/12/01 08:45:17;;;;;;;7.65;6.10;;;5.60;99.90;;;;;;5106946;28;20033;-83
2021/12/01 08:47:44;;;;;;;7.85;5.82;;;5.70;99.90;;;;;;5105674;28;20055;-86
2021/12/01 08:50:11;;;;;;;7.75;5.90;;;5.70;99.90;;;;;;5101826;28;20165;-85
2021/12/01 08:52:37;;;;;;;7.22;5.72;;;5.70;99.90;;;;;;5105511;28;20054;-84
2021/12/01 08:55:04;;;;;;;5.72;5.07;;;5.60;99.90;;;;;;5105489;28;20511;-85
2021/12/01 08:57:30;;;;;;;6.63;5.55;;;5.60;99.90;;;;;;5100196;28;20508;-86
2021/12/01 08:59:56;;;;;;;8.68;6.20;;;5.60;99.90;;;;;;5100640;27;20020;-86
2021/12/01 09:02:21;;;;;;;9.55;6.57;;;5.60;99.90;;;;;;5098080;27;20038;-83
2021/12/01 09:04:51;;;;;;;9.77;7.38;;;5.60;99.90;;;;;;5100184;28;20023;-83
2021/12/01 09:07:18;;;;;;;9.00;6.78;;;5.60;99.90;;;;;;5097251;28;20165;-85
2021/12/01 09:09:44;;;;;;;6.88;5.80;;;5.50;99.90;;;;;;5094778;28;20028;-86
2021/12/01 09:12:10;;;;;;;8.80;7.00;;;5.50;99.90;;;;;;5098593;27;20043;-85
2021/12/01 09:14:35;;;;;;;9.90;6.65;;;5.50;99.90;;;;;;5103463;27;20024;-88
2021/12/01 09:17:01;;;;;;;8.10;6.40;;;5.50;99.90;;;;;;5092861;27;20408;-89
2021/12/01 09:19:26;;;;;;;7.43;6.50;;;5.50;99.90;;;;;;5091887;28;20027;-91
2021/12/01 09:21:52;;;;;;;7.85;6.43;;;5.50;99.90;;;;;;5100312;28;20074;-91
2021/12/01 09:24:20;;;;;;;7.38;6.35;;;5.50;99.90;;;;;;5102807;28;20482;-87
2021/12/01 09:26:46;;;;;;;9.60;6.55;;;5.60;99.90;;;;;;5096271;28;20020;-88
2021/12/01 09:29:12;;;;;;;7.65;6.57;;;5.60;99.90;;;;;;5100318;27;20016;-87
2021/12/01 09:31:38;;;;;;;8.75;6.68;;;5.60;99.90;;;;;;5106731;28;20046;-90
2021/12/01 09:34:03;;;;;;;7.78;6.50;;;5.60;99.90;;;;;;5095867;28;20024;-89
2021/12/01 09:36:29;;;;;;;8.48;6.50;;;5.60;99.90;;;;;;5104158;28;20035;-88
2021/12/01 09:38:56;;;;;;;8.75;6.35;;;5.60;99.90;;;;;;5096283;28;20228;-86
2021/12/01 09:41:23;;;;;;;7.88;6.38;;;5.60;99.90;;;;;;5097103;28;20655;-89
2021/12/01 09:43:48;;;;;;;9.23;6.88;;;5.60;99.90;;;;;;5105611;28;20414;-86
2021/12/01 09:46:14;;;;;;;8.07;6.25;;;5.60;99.90;;;;;;5098109;27;20046;-86
2021/12/01 09:48:41;;;;;;;8.93;7.95;;;5.60;99.90;;;;;;5099021;28;20467;-86
2021/12/01 09:51:09;;;;;;;8.05;6.30;;;5.70;99.90;;;;;;5095761;28;20031;-85
2021/12/01 09:53:34;;;;;;;10.07;7.28;;;5.60;99.90;;;;;;5089125;28;20028;-78
2021/12/01 09:56:01;;;;;;;8.38;6.95;;;5.70;99.90;;;;;;5094692;28;20032;-86
2021/12/01 09:58:31;;;;;;;11.13;7.18;;;5.70;99.90;;;;;;5105552;28;20058;-84
2021/12/01 10:01:00;;;;;;;11.05;7.80;;;5.70;99.90;;;;;;5093213;28;20532;-84
2021/12/01 10:03:25;;;;;;;7.95;6.70;;;5.70;99.90;;;;;;5103757;28;20439;-84
2021/12/01 10:06:09;;;;;;;8.57;6.90;;;5.70;99.90;;;;;;5104575;28;20034;-81
2021/12/01 10:08:40;;;;;;;9.55;5.95;;;5.70;99.90;;;;;;5099375;28;20093;-84
2021/12/01 10:11:10;;;;;;;8.10;6.45;;;5.70;99.90;;;;;;5098631;28;20046;-87
2021/12/01 10:13:39;;;;;;;8.07;6.07;;;5.70;99.90;;;;;;5094809;28;20052;-87
2021/12/01 10:16:08;;;;;;;10.25;6.70;;;5.70;99.90;;;;;;5089532;28;20050;-83
2021/12/01 10:18:46;;;;;;;7.07;5.75;;;5.70;99.90;;;;;;5095432;28;20028;-83
2021/12/01 10:21:17;;;;;;;9.30;6.50;;;5.70;99.90;;;;;;5094773;27;20034;-84
2021/12/01 10:23:44;;;;;;;8.07;6.00;;;5.70;99.90;;;;;;5094502;28;20024;-89
2021/12/01 10:26:16;;;;;;;11.35;6.05;;;5.80;99.90;;;;;;5091640;28;20165;-85
2021/12/01 10:28:54;;;;;;;7.72;5.90;;;5.70;99.90;;;;;;5089963;28;20035;-87
2021/12/01 10:31:30;;;;;;;5.90;5.30;;;5.70;99.90;;;;;;5092854;28;20024;-85
2021/12/01 10:34:26;;;;;;;6.70;5.30;;;5.70;99.90;;;;;;5093812;28;20090;-85
2021/12/01 10:37:30;;;;;;;6.57;5.40;;;5.70;99.90;;;;;;5099187;27;20024;-86
2021/12/01 10:40:20;;;;;;;6.30;5.65;;;5.70;99.90;;;;;;5098386;28;20516;-80
2021/12/01 10:42:52;;;;;;;7.72;5.55;;;5.70;99.90;;;;;;5102258;28;20020;-77
2021/12/01 10:45:19;;;;;;;5.40;4.75;;;5.70;99.90;;;;;;5102343;28;20038;-77
2021/12/01 10:47:45;;;;;;;5.82;5.00;;;5.80;99.90;;;;;;5092668;28;20039;-77
2021/12/01 10:50:13;;;;;;;5.65;4.97;;;5.70;99.90;;;;;;5095137;28;20020;-76
2021/12/01 10:52:47;;;;;;;7.38;5.10;;;5.70;99.90;;;;;;5091140;28;20036;-76
2021/12/01 10:55:21;;;;;;;7.25;4.82;;;5.70;99.90;;;;;;5101638;27;20456;-73
2021/12/01 10:57:49;;;;;;;9.80;6.65;;;5.80;99.90;;;;;;5092463;28;20300;-75
2021/12/01 11:00:24;;;;;;;7.22;6.28;;;5.80;99.90;;;;;;5096269;28;20027;-74
2021/12/01 11:02:51;;;;;;;8.13;5.15;;;5.80;99.90;;;;;;5101101;28;20252;-73
2021/12/01 11:05:45;;;;;;;10.40;5.93;;;5.90;99.90;;;;;;5095273;28;20027;-74
2021/12/01 11:08:26;;;;;;;9.50;6.10;;;5.90;99.90;;;;;;5088028;28;20516;-74
2021/12/01 11:10:54;;;;;;;10.27;5.72;;;5.90;99.90;;;;;;5094123;28;20111;-71
2021/12/01 11:13:20;;;;;;;5.45;4.13;;;5.90;99.90;;;;;;5093569;28;20028;-76
2021/12/01 11:15:55;;;;;;;8.15;4.60;;;6.00;99.90;;;;;;5099589;28;20098;-75
2021/12/01 11:18:24;;;;;;;7.25;5.30;;;6.00;99.90;;;;;;5103338;28;20027;-76
2021/12/01 11:20:52;;;;;;;9.45;5.30;;;6.10;99.90;;;;;;5102294;27;20080;-76
2021/12/01 11:23:22;;;;;;;14.10;8.80;;;6.10;99.90;;;;;;5108516;28;20205;-75
2021/12/01 11:26:09;;;;;;;6.40;5.13;;;6.20;99.90;;;;;;5101581;28;20107;-76
2021/12/01 11:28:43;;;;;;;8.20;4.43;;;6.30;99.90;;;;;;5108140;28;20110;-76
2021/12/01 11:31:13;;;;;;;4.60;3.17;;;6.30;99.90;;;;;;5104104;28;20459;-74
2021/12/01 11:33:44;;;;;;;3.53;2.80;;;6.30;99.90;;;;;;5104867;28;20035;-75
2021/12/01 11:36:16;;;;;;;6.35;2.70;;;6.40;99.90;;;;;;5110694;28;20032;-76
2021/12/01 11:38:42;;;;;;;2.63;2.40;;;6.40;99.90;;;;;;5098980;28;20396;-75
2021/12/01 11:41:09;;;;;;;4.60;4.00;;;6.40;99.90;;;;;;5102893;28;20028;-77
2021/12/01 11:43:37;;;;;;;6.07;4.30;;;6.40;99.90;;;;;;5108095;28;20504;-75
2021/12/01 11:46:05;;;;;;;3.20;2.90;;;6.40;99.90;;;;;;5087589;28;20043;-76
2021/12/01 11:48:36;;;;;;;3.65;2.55;;;6.40;99.90;;;;;;5107176;28;20032;-76
2021/12/01 11:51:15;;;;;;;2.83;2.53;;;6.50;99.90;;;;;;5102859;28;20020;-75
2021/12/01 11:54:06;;;;;;;1.98;1.80;;;6.50;99.90;;;;;;5099855;28;20032;-75
2021/12/01 11:56:36;;;;;;;3.72;2.28;;;6.50;99.90;;;;;;5081740;28;20164;-76
2021/12/01 11:59:13;;;;;;;3.17;2.17;;;6.60;99.90;;;;;;5100127;28;20504;-77
2021/12/01 12:01:45;;;;;;;2.50;2.30;;;6.60;99.90;;;;;;5108913;28;20036;-77
2021/12/01 12:04:14;;;;;;;3.28;2.35;;;6.60;99.90;;;;;;5097774;28;20388;-77
2021/12/01 12:06:46;;;;;;;2.45;2.22;;;6.60;99.90;;;;;;5103766;28;20235;-76
2021/12/01 12:09:15;;;;;;;3.83;2.40;;;6.60;99.90;;;;;;5108497;28;20109;-76
2021/12/01 12:11:53;;;;;;;2.17;1.98;;;6.60;99.90;;;;;;5104626;28;20228;-76
2021/12/01 12:14:25;;;;;;;2.65;2.00;;;6.60;99.90;;;;;;5106596;28;20044;-76
2021/12/01 12:17:18;;;;;;;2.67;2.20;;;6.60;99.90;;;;;;5104980;28;20512;-78
2021/12/01 12:19:50;;;;;;;4.13;2.10;;;6.60;99.90;;;;;;5104091;28;20024;-75
2021/12/01 12:22:19;;;;;;;3.63;2.33;;;6.60;99.90;;;;;;5091272;28;20036;-73
2021/12/01 12:24:52;;;;;;;2.20;2.00;;;6.60;99.90;;;;;;5098232;28;20040;-74
2021/12/01 12:27:38;;;;;;;2.65;2.20;;;6.60;99.90;;;;;;5108540;28;20508;-76
2021/12/01 12:30:36;;;;;;;3.50;2.30;;;6.50;99.90;;;;;;5104492;28;20036;-73
2021/12/01 12:33:18;;;;;;;2.67;2.42;;;6.50;99.90;;;;;;5088326;28;20068;-72
2021/12/01 12:35:47;;;;;;;2.57;2.37;;;6.50;99.90;;;;;;4378417;28;10000691;-81
2021/12/01 12:38:14;;;;;;;3.60;2.50;;;6.50;99.90;;;;;;5071561;28;20118;-78
2021/12/01 12:40:41;;;;;;;2.67;2.47;;;6.50;99.90;;;;;;5086795;28;20024;-80
2021/12/01 12:43:08;;;;;;;5.00;2.53;;;6.50;99.90;;;;;;5073439;28;20091;-74
2021/12/01 12:45:34;;;;;;;3.10;2.80;;;6.50;99.90;;;;;;5090674;28;20055;-73
2021/12/01 12:48:00;;;;;;;3.05;2.80;;;6.50;99.90;;;;;;5081828;28;20523;-73
2021/12/01 12:50:26;;;;;;;4.35;3.95;;;6.50;99.90;;;;;;5071073;28;20126;-73
2021/12/01 12:52:54;;;;;;;3.53;2.92;;;6.50;99.90;;;;;;5079346;28;20291;-76
2021/12/01 12:55:22;;;;;;;3.63;2.83;;;6.50;99.90;;;;;;5083182;28;20035;-74
2021/12/01 12:58:09;;;;;;;3.30;2.92;;;6.50;99.90;;;;;;5085363;28;20473;-75
2021/12/01 13:00:53;;;;;;;2.92;2.63;;;6.50;99.90;;;;;;5082545;28;20028;-75
2021/12/01 13:03:25;;;;;;;2.85;2.60;;;6.50;99.90;;;;;;5079015;28;20024;-72
2021/12/01 13:06:05;;;;;;;3.13;2.30;;;6.50;99.90;;;;;;5082302;28;20115;-74
2021/12/01 13:08:40;;;;;;;4.35;2.70;;;6.50;99.90;;;;;;5082512;28;20032;-74